createdAt,value
2018-06-21T00:00:48.311Z,1016.28
2018-06-21T00:02:15.660Z,1016.30
2018-06-21T00:03:43.345Z,1016.27
2018-06-21T00:05:10.965Z,1016.27
2018-06-21T00:06:38.439Z,1016.27
2018-06-21T00:08:05.921Z,1016.29
2018-06-21T00:09:33.368Z,1016.27
2018-06-21T00:11:00.918Z,1016.29
2018-06-21T00:12:28.539Z,1016.26
2018-06-21T00:13:55.858Z,1016.28
2018-06-21T00:15:23.291Z,1016.28
2018-06-21T00:16:50.589Z,1016.29
2018-06-21T00:18:18.040Z,1016.26
2018-06-21T00:19:45.635Z,1016.26
2018-06-21T00:21:13.093Z,1016.23
2018-06-21T00:22:40.006Z,1016.21
2018-06-21T00:24:07.441Z,1016.22
2018-06-21T00:25:35.113Z,1016.20
2018-06-21T00:27:02.736Z,1016.15
2018-06-21T00:28:30.214Z,1016.13
2018-06-21T00:29:57.666Z,1016.13
2018-06-21T00:31:25.140Z,1016.10
2018-06-21T00:32:52.826Z,1016.08
2018-06-21T00:34:20.265Z,1016.07
2018-06-21T00:35:47.519Z,1016.05
2018-06-21T00:37:14.654Z,1016.04
2018-06-21T00:38:42.030Z,1016.03
2018-06-21T00:40:09.592Z,1016.02
2018-06-21T00:41:37.138Z,1015.99
2018-06-21T00:43:04.495Z,1015.97
2018-06-21T00:44:32.063Z,1015.96
2018-06-21T00:45:59.813Z,1015.92
2018-06-21T00:47:27.295Z,1015.88
2018-06-21T00:48:54.648Z,1015.86
2018-06-21T00:50:22.327Z,1015.84
2018-06-21T00:51:49.699Z,1015.82
2018-06-21T00:53:16.825Z,1015.80
2018-06-21T00:54:44.135Z,1015.81
2018-06-21T00:56:11.517Z,1015.82
2018-06-21T00:57:39.095Z,1015.84
2018-06-21T00:59:06.405Z,1015.86
2018-06-21T01:00:33.370Z,1015.85
2018-06-21T01:02:01.041Z,1015.88
2018-06-21T01:03:28.240Z,1015.89
2018-06-21T01:04:55.816Z,1015.93
2018-06-21T01:06:23.167Z,1015.91
2018-06-21T01:07:50.761Z,1015.92
2018-06-21T01:09:18.321Z,1015.92
2018-06-21T01:10:45.571Z,1015.93
2018-06-21T01:12:13.002Z,1015.89
2018-06-21T01:13:40.114Z,1015.85
2018-06-21T01:15:07.768Z,1015.84
2018-06-21T01:16:35.433Z,1015.80
2018-06-21T01:18:02.707Z,1015.79
2018-06-21T01:19:30.095Z,1015.79
2018-06-21T01:20:57.565Z,1015.79
2018-06-21T01:22:24.929Z,1015.76
2018-06-21T01:23:52.330Z,1015.70
2018-06-21T01:25:19.897Z,1015.65
2018-06-21T01:26:46.991Z,1015.63
2018-06-21T01:28:14.234Z,1015.58
2018-06-21T01:29:41.632Z,1015.57
2018-06-21T01:31:08.746Z,1015.53
2018-06-21T01:32:36.288Z,1015.51
2018-06-21T01:34:03.686Z,1015.48
2018-06-21T01:35:31.126Z,1015.48
2018-06-21T01:36:58.126Z,1015.44
2018-06-21T01:38:25.293Z,1015.42
2018-06-21T01:39:52.814Z,1015.39
2018-06-21T01:41:19.738Z,1015.33
2018-06-21T01:42:47.322Z,1015.29
2018-06-21T01:44:14.328Z,1015.28
2018-06-21T01:45:41.708Z,1015.25
2018-06-21T01:47:08.821Z,1015.24
2018-06-21T01:48:36.399Z,1015.21
2018-06-21T01:50:04.079Z,1015.17
2018-06-21T01:51:31.103Z,1015.17
2018-06-21T01:52:58.709Z,1015.15
2018-06-21T01:54:26.255Z,1015.13
2018-06-21T01:55:53.339Z,1015.11
2018-06-21T01:57:20.885Z,1015.09
2018-06-21T01:58:48.396Z,1015.06
2018-06-21T02:00:15.646Z,1015.02
2018-06-21T02:01:42.665Z,1014.99
2018-06-21T02:03:10.198Z,1014.95
2018-06-21T02:04:37.470Z,1014.89
2018-06-21T02:06:04.457Z,1014.87
2018-06-21T02:07:31.333Z,1014.87
2018-06-21T02:08:58.976Z,1014.84
2018-06-21T02:10:26.521Z,1014.79
2018-06-21T02:11:54.016Z,1014.80
2018-06-21T02:13:21.470Z,1014.79
2018-06-21T02:14:48.912Z,1014.78
2018-06-21T02:16:15.963Z,1014.79
2018-06-21T02:17:43.439Z,1014.80
2018-06-21T02:19:10.862Z,1014.78
2018-06-21T02:20:38.464Z,1014.77
2018-06-21T02:22:06.111Z,1014.75
2018-06-21T02:23:33.331Z,1014.76
2018-06-21T02:25:00.793Z,1014.75
2018-06-21T02:26:28.255Z,1014.72
2018-06-21T02:27:55.429Z,1014.73
2018-06-21T02:29:22.938Z,1014.70
2018-06-21T02:30:49.958Z,1014.67
2018-06-21T02:32:17.190Z,1014.65
2018-06-21T02:33:44.560Z,1014.66
2018-06-21T02:35:12.205Z,1014.69
2018-06-21T02:36:39.700Z,1014.66
2018-06-21T02:38:07.037Z,1014.68
2018-06-21T02:39:34.159Z,1014.65
2018-06-21T02:41:01.348Z,1014.67
2018-06-21T02:42:28.593Z,1014.68
2018-06-21T02:43:56.151Z,1014.66
2018-06-21T02:45:23.644Z,1014.64
2018-06-21T02:46:51.317Z,1014.60
2018-06-21T02:48:18.705Z,1014.60
2018-06-21T02:49:46.275Z,1014.61
2018-06-21T02:51:13.737Z,1014.61
2018-06-21T02:52:41.314Z,1014.60
2018-06-21T02:54:08.330Z,1014.56
2018-06-21T02:55:35.776Z,1014.53
2018-06-21T02:57:03.076Z,1014.49
2018-06-21T02:58:30.543Z,1014.46
2018-06-21T02:59:57.966Z,1014.45
2018-06-21T03:01:25.028Z,1014.39
2018-06-21T03:02:52.589Z,1014.35
2018-06-21T03:04:19.539Z,1014.32
2018-06-21T03:05:47.009Z,1014.29
2018-06-21T03:07:14.502Z,1014.32
2018-06-21T03:08:41.953Z,1014.36
2018-06-21T03:10:09.508Z,1014.36
2018-06-21T03:11:36.381Z,1014.30
2018-06-21T03:13:04.023Z,1014.27
2018-06-21T03:14:31.131Z,1014.23
2018-06-21T03:15:58.449Z,1014.21
2018-06-21T03:17:25.919Z,1014.19
2018-06-21T03:18:53.440Z,1014.17
2018-06-21T03:20:20.398Z,1014.17
2018-06-21T03:21:48.028Z,1014.13
2018-06-21T03:23:15.367Z,1014.09
2018-06-21T03:24:42.872Z,1014.09
2018-06-21T03:26:10.322Z,1014.13
2018-06-21T03:27:37.780Z,1014.12
2018-06-21T03:29:05.194Z,1014.08
2018-06-21T03:30:32.232Z,1014.06
2018-06-21T03:31:59.700Z,1014.01
2018-06-21T03:33:27.140Z,1013.91
2018-06-21T03:34:54.190Z,1013.85
2018-06-21T03:36:21.701Z,1013.81
2018-06-21T03:37:48.902Z,1013.82
2018-06-21T03:39:16.312Z,1013.83
2018-06-21T03:40:43.250Z,1013.81
2018-06-21T03:42:10.575Z,1013.80
2018-06-21T03:43:37.448Z,1013.78
2018-06-21T03:45:04.665Z,1013.75
2018-06-21T03:46:32.186Z,1013.72
2018-06-21T03:47:59.479Z,1013.73
2018-06-21T03:49:26.926Z,1013.70
2018-06-21T03:50:54.045Z,1013.67
2018-06-21T03:52:21.436Z,1013.64
2018-06-21T03:53:48.347Z,1013.61
2018-06-21T03:55:15.566Z,1013.60
2018-06-21T03:56:42.852Z,1013.60
2018-06-21T03:58:10.366Z,1013.60
2018-06-21T03:59:38.094Z,1013.56
2018-06-21T04:01:05.536Z,1013.55
2018-06-21T04:02:32.622Z,1013.53
2018-06-21T04:04:00.282Z,1013.51
2018-06-21T04:05:27.993Z,1013.48
2018-06-21T04:06:55.215Z,1013.44
2018-06-21T04:08:22.641Z,1013.42
2018-06-21T04:09:49.688Z,1013.45
2018-06-21T04:11:17.302Z,1013.44
2018-06-21T04:12:44.410Z,1013.38
2018-06-21T04:14:11.670Z,1013.38
2018-06-21T04:15:39.292Z,1013.36
2018-06-21T04:17:06.754Z,1013.31
2018-06-21T04:18:34.178Z,1013.31
2018-06-21T04:20:01.739Z,1013.33
2018-06-21T04:21:28.652Z,1013.28
2018-06-21T04:22:56.128Z,1013.28
2018-06-21T04:24:23.385Z,1013.28
2018-06-21T04:25:50.950Z,1013.27
2018-06-21T04:27:18.457Z,1013.30
2018-06-21T04:28:45.781Z,1013.28
2018-06-21T04:30:12.806Z,1013.26
2018-06-21T04:31:40.361Z,1013.26
2018-06-21T04:33:07.830Z,1013.28
2018-06-21T04:34:34.927Z,1013.28
2018-06-21T04:36:02.603Z,1013.27
2018-06-21T04:37:30.218Z,1013.22
2018-06-21T04:38:57.854Z,1013.20
2018-06-21T04:40:25.346Z,1013.18
2018-06-21T04:41:52.895Z,1013.17
2018-06-21T04:43:19.690Z,1013.20
2018-06-21T04:44:47.182Z,1013.16
2018-06-21T04:46:14.754Z,1013.14
2018-06-21T04:47:42.359Z,1013.14
2018-06-21T04:49:09.454Z,1013.14
2018-06-21T04:50:36.613Z,1013.15
2018-06-21T04:52:03.909Z,1013.17
2018-06-21T04:53:31.139Z,1013.14
2018-06-21T04:54:58.689Z,1013.09
2018-06-21T04:56:26.067Z,1013.06
2018-06-21T04:57:53.771Z,1013.03
2018-06-21T04:59:21.155Z,1012.97
2018-06-21T05:00:48.803Z,1012.95
2018-06-21T05:02:15.524Z,1012.93
2018-06-21T05:03:43.044Z,1012.92
2018-06-21T05:05:10.559Z,1012.91
2018-06-21T05:06:38.053Z,1012.87
2018-06-21T05:08:05.236Z,1012.84
2018-06-21T05:09:32.589Z,1012.79
2018-06-21T05:11:00.109Z,1012.74
2018-06-21T05:12:27.400Z,1012.68
2018-06-21T05:13:54.858Z,1012.61
2018-06-21T05:15:22.423Z,1012.58
2018-06-21T05:16:49.799Z,1012.57
2018-06-21T05:18:16.969Z,1012.58
2018-06-21T05:19:44.492Z,1012.57
2018-06-21T05:21:11.864Z,1012.54
2018-06-21T05:22:39.215Z,1012.48
2018-06-21T05:24:06.495Z,1012.45
2018-06-21T05:25:33.847Z,1012.41
2018-06-21T05:27:01.061Z,1012.41
2018-06-21T05:28:28.621Z,1012.39
2018-06-21T05:29:56.250Z,1012.38
2018-06-21T05:31:23.799Z,1012.33
2018-06-21T05:32:51.269Z,1012.29
2018-06-21T05:34:18.812Z,1012.27
2018-06-21T05:35:46.318Z,1012.22
2018-06-21T05:37:13.919Z,1012.21
2018-06-21T05:38:41.432Z,1012.12
2018-06-21T05:40:08.801Z,1012.05
2018-06-21T05:41:36.183Z,1012.01
2018-06-21T05:43:03.416Z,1011.93
2018-06-21T05:44:30.950Z,1011.83
2018-06-21T05:45:58.353Z,1011.78
2018-06-21T05:47:25.989Z,1011.75
2018-06-21T05:48:53.171Z,1011.66
2018-06-21T05:50:20.753Z,1011.59
2018-06-21T05:51:48.217Z,1011.56
2018-06-21T05:53:15.802Z,1011.52
2018-06-21T05:54:42.859Z,1011.53
2018-06-21T05:56:10.506Z,1011.56
2018-06-21T05:57:37.853Z,1011.53
2018-06-21T05:59:05.448Z,1011.53
2018-06-21T06:00:32.715Z,1011.52
2018-06-21T06:02:00.251Z,1011.53
2018-06-21T06:03:27.754Z,1011.55
2018-06-21T06:04:55.286Z,1011.61
2018-06-21T06:06:22.857Z,1011.76
2018-06-21T06:07:50.327Z,1011.95
2018-06-21T06:09:17.685Z,1012.00
2018-06-21T06:10:45.264Z,1011.98
2018-06-21T06:12:12.670Z,1012.00
2018-06-21T06:13:40.211Z,1012.11
2018-06-21T06:15:07.775Z,1012.05
2018-06-21T06:16:34.672Z,1012.06
2018-06-21T06:18:02.217Z,1012.09
2018-06-21T06:19:29.705Z,1012.15
2018-06-21T06:20:57.232Z,1012.15
2018-06-21T06:22:24.435Z,1012.13
2018-06-21T06:23:51.875Z,1012.11
2018-06-21T06:25:19.231Z,1012.03
2018-06-21T06:26:46.929Z,1012.01
2018-06-21T06:28:14.326Z,1011.98
2018-06-21T06:29:41.733Z,1011.99
2018-06-21T06:31:09.123Z,1012.00
2018-06-21T06:32:36.364Z,1011.98
2018-06-21T06:34:03.972Z,1011.91
2018-06-21T06:35:31.126Z,1011.89
2018-06-21T06:36:58.648Z,1012.01
2018-06-21T06:38:26.076Z,1012.03
2018-06-21T06:39:53.430Z,1012.03
2018-06-21T06:41:20.914Z,1012.04
2018-06-21T06:42:48.067Z,1011.98
2018-06-21T06:44:15.218Z,1011.95
2018-06-21T06:45:42.909Z,1011.92
2018-06-21T06:47:10.402Z,1011.82
2018-06-21T06:48:37.843Z,1011.72
2018-06-21T06:50:05.132Z,1011.63
2018-06-21T06:51:32.598Z,1011.58
2018-06-21T06:54:37.188Z,1011.63
2018-06-21T06:56:04.249Z,1011.62
2018-06-21T06:57:31.067Z,1011.66
2018-06-21T06:59:37.463Z,1011.78
2018-06-21T07:01:04.515Z,1011.88
2018-06-21T07:02:31.891Z,1011.98
2018-06-21T07:03:59.214Z,1012.04
2018-06-21T07:05:26.830Z,1012.17
2018-06-21T07:06:54.366Z,1012.21
2018-06-21T07:08:20.993Z,1012.34
2018-06-21T07:09:47.901Z,1012.43
2018-06-21T07:11:15.212Z,1012.48
2018-06-21T07:12:41.730Z,1012.42
2018-06-21T07:14:09.294Z,1012.34
2018-06-21T07:15:36.375Z,1012.35
2018-06-21T07:17:03.622Z,1012.41
2018-06-21T07:18:31.181Z,1012.48
2018-06-21T07:19:58.240Z,1012.52
2018-06-21T07:21:25.744Z,1012.55
2018-06-21T07:22:53.171Z,1012.60
2018-06-21T07:24:20.137Z,1012.68
2018-06-21T07:25:47.524Z,1012.63
2018-06-21T07:27:14.355Z,1012.57
2018-06-21T07:28:41.267Z,1012.51
2018-06-21T07:30:08.471Z,1012.42
2018-06-21T07:31:35.447Z,1012.50
2018-06-21T07:33:02.876Z,1012.59
2018-06-21T07:34:30.439Z,1012.54
2018-06-21T07:35:57.985Z,1012.56
2018-06-21T07:37:24.918Z,1012.49
2018-06-21T07:38:52.287Z,1012.44
2018-06-21T07:40:19.649Z,1012.47
2018-06-21T07:41:46.993Z,1012.44
2018-06-21T07:43:14.427Z,1012.49
2018-06-21T07:44:41.890Z,1012.46
2018-06-21T07:46:09.172Z,1012.42
2018-06-21T07:47:36.739Z,1012.40
2018-06-21T07:49:03.951Z,1012.37
2018-06-21T07:50:31.204Z,1012.40
2018-06-21T07:51:58.629Z,1012.40
2018-06-21T07:53:26.049Z,1012.36
2018-06-21T07:54:53.274Z,1012.38
2018-06-21T07:56:20.686Z,1012.38
2018-06-21T07:57:47.370Z,1012.42
2018-06-21T07:59:14.986Z,1012.48
2018-06-21T08:00:41.818Z,1012.53
2018-06-21T08:02:08.941Z,1012.65
2018-06-21T08:03:36.244Z,1012.75
2018-06-21T08:05:03.845Z,1012.83
2018-06-21T08:06:30.770Z,1012.90
2018-06-21T08:07:57.903Z,1012.91
2018-06-21T08:09:25.331Z,1012.92
2018-06-21T08:10:52.645Z,1012.97
2018-06-21T08:12:20.073Z,1012.99
2018-06-21T08:13:47.614Z,1012.96
2018-06-21T08:15:15.294Z,1012.97
2018-06-21T08:16:42.531Z,1012.94
2018-06-21T08:18:09.832Z,1012.86
2018-06-21T08:19:37.188Z,1012.80
2018-06-21T08:21:04.521Z,1012.76
2018-06-21T08:22:31.921Z,1012.77
2018-06-21T08:23:59.302Z,1012.71
2018-06-21T08:25:26.616Z,1012.65
2018-06-21T08:26:54.000Z,1012.58
2018-06-21T08:28:21.402Z,1012.57
2018-06-21T08:29:48.774Z,1012.52
2018-06-21T08:31:16.259Z,1012.55
2018-06-21T08:32:43.328Z,1012.54
2018-06-21T08:34:10.824Z,1012.58
2018-06-21T08:35:38.044Z,1012.52
2018-06-21T08:37:05.356Z,1012.53
2018-06-21T08:38:32.347Z,1012.60
2018-06-21T08:39:59.805Z,1012.63
2018-06-21T08:41:27.152Z,1012.68
2018-06-21T08:42:54.680Z,1012.66
2018-06-21T08:44:22.050Z,1012.66
2018-06-21T08:45:49.373Z,1012.71
2018-06-21T08:47:16.591Z,1012.80
2018-06-21T08:48:43.954Z,1012.82
2018-06-21T08:50:11.502Z,1012.87
2018-06-21T08:51:38.245Z,1012.91
2018-06-21T08:53:05.502Z,1012.91
2018-06-21T08:54:32.643Z,1012.93
2018-06-21T08:56:00.201Z,1012.91
2018-06-21T08:57:27.699Z,1012.91
2018-06-21T08:58:54.948Z,1012.90
2018-06-21T09:00:22.132Z,1012.81
2018-06-21T09:01:49.663Z,1012.76
2018-06-21T09:03:17.283Z,1012.80
2018-06-21T09:04:44.558Z,1012.83
2018-06-21T09:06:11.942Z,1012.84
2018-06-21T09:07:39.385Z,1012.83
2018-06-21T09:09:06.797Z,1012.75
2018-06-21T09:10:34.443Z,1012.65
2018-06-21T09:12:01.620Z,1012.60
2018-06-21T09:13:29.008Z,1012.62
2018-06-21T09:14:56.396Z,1012.50
2018-06-21T09:16:23.844Z,1012.39
2018-06-21T09:17:51.421Z,1012.36
2018-06-21T09:19:18.655Z,1012.37
2018-06-21T09:20:46.111Z,1012.43
2018-06-21T09:22:13.362Z,1012.48
2018-06-21T09:23:40.921Z,1012.50
2018-06-21T09:25:08.212Z,1012.54
2018-06-21T09:26:35.372Z,1012.58
2018-06-21T09:28:02.573Z,1012.70
2018-06-21T09:29:29.822Z,1012.78
2018-06-21T09:30:57.340Z,1012.91
2018-06-21T09:32:24.795Z,1013.00
2018-06-21T09:33:52.205Z,1013.08
2018-06-21T09:35:19.583Z,1013.05
2018-06-21T09:36:47.179Z,1013.04
2018-06-21T09:38:14.395Z,1013.01
2018-06-21T09:39:41.834Z,1013.01
2018-06-21T09:41:09.267Z,1012.94
2018-06-21T09:42:36.890Z,1012.85
2018-06-21T09:44:04.357Z,1012.67
2018-06-21T09:45:31.587Z,1012.54
2018-06-21T09:46:58.999Z,1012.38
2018-06-21T09:48:26.511Z,1012.25
2018-06-21T09:49:53.929Z,1012.24
2018-06-21T09:51:21.556Z,1012.25
2018-06-21T09:52:48.835Z,1012.44
2018-06-21T09:54:16.374Z,1012.69
2018-06-21T09:55:43.852Z,1012.74
2018-06-21T09:57:11.175Z,1012.74
2018-06-21T09:58:38.576Z,1012.78
2018-06-21T10:00:05.806Z,1012.56
2018-06-21T10:01:33.151Z,1012.37
2018-06-21T10:03:00.720Z,1012.42
2018-06-21T10:04:28.204Z,1012.64
2018-06-21T10:05:55.505Z,1012.83
2018-06-21T10:07:22.869Z,1012.96
2018-06-21T10:08:50.297Z,1012.80
2018-06-21T10:10:17.394Z,1012.67
2018-06-21T10:11:44.742Z,1012.83
2018-06-21T10:13:12.233Z,1012.80
2018-06-21T10:14:39.676Z,1012.85
2018-06-21T10:16:06.851Z,1012.61
2018-06-21T10:17:34.329Z,1012.17
2018-06-21T10:19:01.641Z,1011.47
2018-06-21T10:20:38.558Z,1011.68
2018-06-21T10:27:45.094Z,1012.86
2018-06-21T10:29:11.854Z,1012.87
2018-06-21T10:30:39.086Z,1012.73
2018-06-21T10:32:06.308Z,1012.69
2018-06-21T10:33:33.720Z,1012.86
2018-06-21T10:35:00.949Z,1012.64
2018-06-21T10:36:28.428Z,1012.62
2018-06-21T10:37:55.856Z,1012.90
2018-06-21T10:39:23.140Z,1012.75
2018-06-21T10:40:50.544Z,1012.45
2018-06-21T10:42:18.092Z,1012.26
2018-06-21T10:43:45.236Z,1012.49
2018-06-21T10:45:12.601Z,1012.70
2018-06-21T10:46:39.952Z,1012.72
2018-06-21T10:48:07.380Z,1012.70
2018-06-21T10:49:34.729Z,1012.63
2018-06-21T10:51:02.152Z,1012.53
2018-06-21T10:52:29.103Z,1012.48
2018-06-21T10:53:56.770Z,1012.39
2018-06-21T10:55:24.175Z,1012.32
2018-06-21T10:56:51.727Z,1012.43
2018-06-21T10:58:19.434Z,1012.52
2018-06-21T10:59:46.522Z,1012.59
2018-06-21T11:01:13.982Z,1012.62
2018-06-21T11:02:40.824Z,1012.64
2018-06-21T11:04:47.012Z,1012.67
2018-06-21T11:06:52.385Z,1012.67
2018-06-21T11:08:19.098Z,1012.64
2018-06-21T11:09:45.777Z,1012.62
2018-06-21T11:11:13.061Z,1012.55
2018-06-21T11:12:40.413Z,1012.56
2018-06-21T11:14:07.916Z,1012.67
2018-06-21T11:15:34.938Z,1012.77
2018-06-21T11:17:02.297Z,1012.91
2018-06-21T11:18:29.634Z,1012.95
2018-06-21T11:19:57.128Z,1012.90
2018-06-21T11:21:24.259Z,1012.85
2018-06-21T11:22:51.521Z,1012.78
2018-06-21T11:24:18.653Z,1012.70
2018-06-21T11:25:46.174Z,1012.63
2018-06-21T11:27:13.496Z,1012.59
2018-06-21T11:28:40.298Z,1012.56
2018-06-21T11:30:07.611Z,1012.54
2018-06-21T11:31:34.613Z,1012.51
2018-06-21T11:33:01.986Z,1012.52
2018-06-21T11:34:28.855Z,1012.53
2018-06-21T11:35:56.089Z,1012.52
2018-06-21T11:37:23.794Z,1012.47
2018-06-21T11:38:51.216Z,1012.44
2018-06-21T11:40:18.293Z,1012.41
2018-06-21T11:41:45.732Z,1012.42
2018-06-21T11:43:13.215Z,1012.48
2018-06-21T11:44:40.789Z,1012.46
2018-06-21T11:46:08.167Z,1012.42
2018-06-21T11:47:35.439Z,1012.33
2018-06-21T11:49:02.757Z,1012.35
2018-06-21T11:50:30.475Z,1012.40
2018-06-21T11:51:57.587Z,1012.40
2018-06-21T11:53:25.068Z,1012.41
2018-06-21T11:54:52.453Z,1012.45
2018-06-21T11:56:20.084Z,1012.43
2018-06-21T11:57:47.494Z,1012.41
2018-06-21T11:59:14.819Z,1012.36
2018-06-21T12:00:42.325Z,1012.35
2018-06-21T12:02:09.579Z,1012.32
2018-06-21T12:03:36.839Z,1012.29
2018-06-21T12:05:03.910Z,1012.21
2018-06-21T12:06:31.219Z,1012.20
2018-06-21T12:07:58.021Z,1012.20
2018-06-21T12:09:25.620Z,1012.21
2018-06-21T12:11:01.087Z,1012.25
2018-06-21T12:12:19.913Z,1012.30
2018-06-21T12:13:47.442Z,1012.33
2018-06-21T12:15:14.928Z,1012.34
2018-06-21T12:16:42.400Z,1012.38
2018-06-21T12:18:09.925Z,1012.36
2018-06-21T12:19:37.204Z,1012.44
2018-06-21T12:21:04.676Z,1012.46
2018-06-21T12:22:31.639Z,1012.52
2018-06-21T12:23:59.049Z,1012.54
2018-06-21T12:25:26.375Z,1012.62
2018-06-21T12:26:53.922Z,1012.66
2018-06-21T12:28:21.214Z,1012.68
2018-06-21T12:29:48.368Z,1012.68
2018-06-21T12:31:15.826Z,1012.75
2018-06-21T12:32:43.243Z,1012.82
2018-06-21T12:34:10.601Z,1012.83
2018-06-21T12:35:38.055Z,1012.89
2018-06-21T12:37:05.264Z,1013.01
2018-06-21T12:38:32.511Z,1013.01
2018-06-21T12:39:59.965Z,1013.15
2018-06-21T12:41:27.182Z,1013.07
2018-06-21T12:42:54.637Z,1012.99
2018-06-21T12:44:21.925Z,1012.98
2018-06-21T12:45:49.263Z,1013.03
2018-06-21T12:47:16.831Z,1013.03
2018-06-21T12:48:44.373Z,1013.08
2018-06-21T12:50:11.695Z,1013.11
2018-06-21T12:51:39.059Z,1013.21
2018-06-21T12:53:06.574Z,1013.32
2018-06-21T12:54:33.983Z,1013.37
2018-06-21T12:56:01.238Z,1013.39
2018-06-21T12:57:28.687Z,1013.35
2018-06-21T12:58:55.830Z,1013.37
2018-06-21T13:00:23.371Z,1013.39
2018-06-21T13:01:50.901Z,1013.32
2018-06-21T13:03:18.069Z,1013.20
2018-06-21T13:04:45.471Z,1013.16
2018-06-21T13:06:12.849Z,1013.38
2018-06-21T13:07:40.260Z,1013.61
2018-06-21T13:09:07.618Z,1013.80
2018-06-21T13:10:34.905Z,1013.82
2018-06-21T13:12:02.160Z,1013.82
2018-06-21T13:13:29.581Z,1013.83
2018-06-21T13:14:56.995Z,1013.80
2018-06-21T13:16:24.485Z,1013.72
2018-06-21T13:17:51.957Z,1013.70
2018-06-21T13:19:19.285Z,1013.65
2018-06-21T13:20:46.629Z,1013.63
2018-06-21T13:22:14.059Z,1013.62
2018-06-21T13:23:41.372Z,1013.61
2018-06-21T13:25:08.752Z,1013.53
2018-06-21T13:26:36.001Z,1013.50
2018-06-21T13:28:04.166Z,1013.37
2018-06-21T13:29:30.453Z,1013.22
2018-06-21T13:30:57.710Z,1013.22
2018-06-21T13:32:25.133Z,1013.12
2018-06-21T13:33:52.518Z,1013.22
2018-06-21T13:35:19.761Z,1013.21
2018-06-21T13:36:47.358Z,1013.22
2018-06-21T13:38:14.794Z,1013.38
2018-06-21T13:39:42.165Z,1013.53
2018-06-21T13:41:09.534Z,1013.60
2018-06-21T13:42:36.780Z,1013.63
2018-06-21T13:44:04.068Z,1013.64
2018-06-21T13:45:31.464Z,1013.68
2018-06-21T13:46:58.781Z,1013.70
2018-06-21T13:48:25.480Z,1013.65
2018-06-21T13:49:52.625Z,1013.64
2018-06-21T13:51:19.914Z,1013.55
2018-06-21T13:52:47.531Z,1013.51
2018-06-21T13:54:14.565Z,1013.44
2018-06-21T13:55:42.017Z,1013.49
2018-06-21T13:57:09.476Z,1013.43
2018-06-21T13:58:36.706Z,1013.40
2018-06-21T14:00:04.261Z,1013.44
2018-06-21T14:01:31.438Z,1013.40
2018-06-21T14:02:58.910Z,1013.39
2018-06-21T14:04:26.200Z,1013.42
2018-06-21T14:05:53.891Z,1013.46
2018-06-21T14:07:21.159Z,1013.47
2018-06-21T14:08:48.753Z,1013.37
2018-06-21T14:10:15.700Z,1013.37
2018-06-21T14:11:43.169Z,1013.32
2018-06-21T14:13:10.798Z,1013.32
2018-06-21T14:14:38.172Z,1013.28
2018-06-21T14:16:05.567Z,1013.23
2018-06-21T14:17:33.044Z,1013.17
2018-06-21T14:19:00.461Z,1013.19
2018-06-21T14:20:27.930Z,1013.14
2018-06-21T14:21:54.949Z,1013.12
2018-06-21T14:23:22.227Z,1013.18
2018-06-21T14:24:49.463Z,1013.17
2018-06-21T14:26:16.729Z,1013.18
2018-06-21T14:27:44.044Z,1013.23
2018-06-21T14:29:11.507Z,1013.20
2018-06-21T14:30:38.919Z,1013.32
2018-06-21T14:32:06.187Z,1013.37
2018-06-21T14:33:33.469Z,1013.59
2018-06-21T14:35:00.707Z,1013.85
2018-06-21T14:36:27.957Z,1014.02
2018-06-21T14:37:55.462Z,1014.04
2018-06-21T14:39:22.842Z,1014.10
2018-06-21T14:40:50.287Z,1014.08
2018-06-21T14:42:17.718Z,1014.09
2018-06-21T14:43:45.280Z,1014.13
2018-06-21T14:45:12.357Z,1014.21
2018-06-21T14:46:39.906Z,1014.24
2018-06-21T14:48:07.272Z,1014.28
2018-06-21T14:49:34.542Z,1014.28
2018-06-21T14:51:02.086Z,1014.31
2018-06-21T14:52:29.412Z,1014.31
2018-06-21T14:53:56.779Z,1014.30
2018-06-21T14:55:24.210Z,1014.37
2018-06-21T14:56:51.603Z,1014.51
2018-06-21T14:58:18.985Z,1014.54
2018-06-21T14:59:46.348Z,1014.56
2018-06-21T15:01:13.576Z,1014.64
2018-06-21T15:02:40.830Z,1014.68
2018-06-21T15:04:08.270Z,1014.82
2018-06-21T15:05:35.579Z,1014.89
2018-06-21T15:07:03.059Z,1014.93
2018-06-21T15:08:30.500Z,1014.97
2018-06-21T15:09:57.963Z,1015.02
2018-06-21T15:11:25.299Z,1015.06
2018-06-21T15:12:52.777Z,1015.12
2018-06-21T15:14:20.077Z,1015.16
2018-06-21T15:15:47.390Z,1015.21
2018-06-21T15:17:14.800Z,1015.18
2018-06-21T15:18:42.094Z,1015.11
2018-06-21T15:20:09.623Z,1015.13
2018-06-21T15:21:37.123Z,1015.11
2018-06-21T15:23:04.698Z,1015.04
2018-06-21T15:24:32.038Z,1015.03
2018-06-21T15:25:59.433Z,1014.99
2018-06-21T15:27:26.856Z,1015.05
2018-06-21T15:28:54.369Z,1015.07
2018-06-21T15:30:21.602Z,1015.08
2018-06-21T15:31:48.926Z,1015.07
2018-06-21T15:33:16.316Z,1015.10
2018-06-21T15:34:43.443Z,1015.13
2018-06-21T15:36:10.952Z,1015.17
2018-06-21T15:37:38.285Z,1015.19
2018-06-21T15:39:05.866Z,1015.21
2018-06-21T15:40:33.137Z,1015.24
2018-06-21T15:42:00.346Z,1015.24
2018-06-21T15:43:27.945Z,1015.29
2018-06-21T15:44:55.391Z,1015.28
2018-06-21T15:46:22.802Z,1015.37
2018-06-21T15:47:50.076Z,1015.41
2018-06-21T15:49:17.570Z,1015.48
2018-06-21T15:50:44.813Z,1015.48
2018-06-21T15:52:12.232Z,1015.52
2018-06-21T15:53:39.548Z,1015.52
2018-06-21T15:55:06.970Z,1015.57
2018-06-21T15:56:34.401Z,1015.57
2018-06-21T15:58:01.751Z,1015.62
2018-06-21T15:59:29.198Z,1015.68
2018-06-21T16:00:56.367Z,1015.73
2018-06-21T16:02:23.931Z,1015.78
2018-06-21T16:03:52.215Z,1015.83
2018-06-21T16:05:18.931Z,1015.84
2018-06-21T16:06:46.167Z,1015.83
2018-06-21T16:08:13.669Z,1015.86
2018-06-21T16:09:40.844Z,1015.90
2018-06-21T16:11:08.436Z,1015.91
2018-06-21T16:12:35.777Z,1015.90
2018-06-21T16:14:03.236Z,1015.88
2018-06-21T16:15:30.777Z,1015.90
2018-06-21T16:16:57.967Z,1015.92
2018-06-21T16:18:25.352Z,1015.90
2018-06-21T16:19:52.888Z,1015.91
2018-06-21T16:21:20.212Z,1015.92
2018-06-21T16:22:47.643Z,1015.94
2018-06-21T16:24:14.813Z,1015.98
2018-06-21T16:25:42.104Z,1015.95
2018-06-21T16:27:09.454Z,1016.01
2018-06-21T16:28:36.823Z,1016.01
2018-06-21T16:30:03.961Z,1016.03
2018-06-21T16:31:31.218Z,1016.10
2018-06-21T16:32:58.756Z,1016.10
2018-06-21T16:34:26.109Z,1016.17
2018-06-21T16:35:53.527Z,1016.18
2018-06-21T16:37:20.984Z,1016.20
2018-06-21T16:38:48.587Z,1016.17
2018-06-21T16:40:15.879Z,1016.12
2018-06-21T16:41:43.290Z,1016.09
2018-06-21T16:43:10.817Z,1016.07
2018-06-21T16:44:38.193Z,1016.00
2018-06-21T16:46:05.764Z,1016.02
2018-06-21T16:47:33.016Z,1016.04
2018-06-21T16:49:00.579Z,1016.02
2018-06-21T16:50:27.966Z,1016.00
2018-06-21T16:51:55.339Z,1016.01
2018-06-21T16:53:22.575Z,1016.01
2018-06-21T16:54:50.000Z,1016.07
2018-06-21T16:56:17.428Z,1016.05
2018-06-21T16:57:44.711Z,1016.12
2018-06-21T16:59:11.814Z,1016.18
2018-06-21T17:00:39.052Z,1016.25
2018-06-21T17:02:06.223Z,1016.32
2018-06-21T17:03:33.852Z,1016.37
2018-06-21T17:05:01.052Z,1016.42
2018-06-21T17:06:28.457Z,1016.48
2018-06-21T17:07:55.685Z,1016.49
2018-06-21T17:09:23.065Z,1016.51
2018-06-21T17:10:50.485Z,1016.54
2018-06-21T17:12:18.046Z,1016.55
2018-06-21T17:13:45.221Z,1016.57
2018-06-21T17:15:12.696Z,1016.58
2018-06-21T17:16:40.100Z,1016.56
2018-06-21T17:18:07.519Z,1016.57
2018-06-21T17:19:34.897Z,1016.56
2018-06-21T17:21:02.608Z,1016.58
2018-06-21T17:22:30.054Z,1016.54
2018-06-21T17:23:57.349Z,1016.51
2018-06-21T17:25:24.969Z,1016.49
2018-06-21T17:26:52.365Z,1016.47
2018-06-21T17:28:19.679Z,1016.44
2018-06-21T17:29:47.089Z,1016.40
2018-06-21T17:31:14.513Z,1016.47
2018-06-21T17:32:41.869Z,1016.51
2018-06-21T17:34:09.331Z,1016.50
2018-06-21T17:35:36.922Z,1016.48
2018-06-21T17:37:04.415Z,1016.50
2018-06-21T17:38:31.532Z,1016.47
2018-06-21T17:39:58.929Z,1016.46
2018-06-21T17:41:26.369Z,1016.42
2018-06-21T17:42:53.630Z,1016.39
2018-06-21T17:44:20.834Z,1016.43
2018-06-21T17:45:48.394Z,1016.37